Latest Coastal Weather Observations for Gabo Island

IDV60701

Issued at 1:51 pm EST Monday 27 June 2016 (issued every 10 minutes, with the page automatically refreshed every 10 minutes)

About coastal observations | Map of coastal stations | Coastal observations for VIC | Marine services | Other Formats
Station Details ID: 084016 Name: GABO ISLAND LIGHTHOUSE Lat: -37.57 Lon: 149.92 Height: 15.2 m
Data from the previous 72 hours. | See also: Recent months at Gabo Island
Date/Time
EST
Temp
°C
Wind Pressure Rain since
9am
mm
Weather Cloud Vis
km
Sea
Height
m
Swell
Dir  Spd
kts
Gust
kts
hPa Trend Height
m
Period
s
Dir
27/01:30pm 12.2 WSW 14 20 1014.8 - 0.0 - - - - - - -
27/01:00pm 12.1 W 11 13 1014.9 - 0.0 - - - - - - -
27/12:30pm 12.0 WSW 13 17 1015.2 - 0.0 - - - - - - -
27/12:00pm 10.7 W 14 17 1015.5 - 0.0 - - - - - - -
27/11:30am 10.4 W 15 19 1016.0 - 0.0 - - - - - - -
27/11:00am 10.0 W 16 19 1016.2 - 0.0 - - - - - - -
27/10:30am 9.7 W 16 20 1016.2 - 0.0 - - - - - - -
27/10:00am 9.7 W 15 18 1016.2 - 0.0 - - - - - - -
27/09:30am 10.0 W 14 17 1016.2 - 0.0 - - - - - - -
27/09:00am 9.7 W 13 16 1016.0 - 0.0 Fine Mostly cloudy 40 1 1.5 9 S
27/08:30am 8.6 W 13 18 1016.0 - 0.0 - - - - - - -
27/08:00am 8.4 W 12 16 1015.7 - 0.0 - - - - - - -
27/07:30am 8.1 W 12 15 1015.6 - 0.0 - - - - - - -
27/07:00am 8.0 W 11 15 1015.4 - 0.0 - - - - - - -
27/06:30am 8.4 W 12 15 1015.1 - 0.0 - - - - - - -
27/06:00am 8.3 W 11 15 1014.8 - 0.0 - - - - - - -
27/05:30am 9.0 W 15 19 1014.5 - 0.0 - - - - - - -
27/05:00am 9.2 W 16 19 1014.3 - 0.0 - - - - - - -
27/04:30am 9.2 W 13 17 1014.4 - 0.0 - - - - - - -
27/04:00am 8.7 W 12 14 1014.6 - 0.0 - - - - - - -
27/03:30am 8.6 W 10 12 1014.9 - 0.0 - - - - - - -
27/03:00am 8.8 WNW 9 11 1014.7 - 0.0 Fine Cloudy 30 1 1.5 9 S
27/02:30am 8.9 W 9 11 1014.7 - 0.0 - - - - - - -
27/02:00am 9.3 WNW 7 9 1014.8 - 0.0 - - - - - - -
27/01:30am 9.2 WNW 8 9 1014.6 - 0.0 - - - - - - -
27/01:00am 9.3 WNW 8 10 1014.5 - 0.0 - - - - - - -
27/12:30am 9.4 WNW 8 9 1014.6 - 0.0 - - - - - - -
27/12:00am 9.7 WNW 7 8 1014.9 - 0.0 - - - - - - -
 
Date/Time
EST
Temp
°C
Wind Pressure Rain since
9am
mm
Weather Cloud Vis
km
Sea
Height
m
Swell
Dir  Spd
kts
Gust
kts
hPa Trend Height
m
Period
s
Dir
26/11:30pm 9.5 WNW 8 8 1015.1 - 0.0 - - - - - - -
26/11:00pm 9.7 WNW 7 8 1015.3 - 0.0 - - - - - - -
26/10:30pm 9.6 WNW 7 8 1015.3 - 0.0 - - - - - - -
26/10:00pm 9.8 WNW 7 7 1015.6 - 0.0 - - - - - - -
26/09:30pm 10.1 WNW 6 7 1015.8 - 0.0 - - - - - - -
26/09:00pm 10.2 WNW 6 7 1016.0 - 0.0 Fine Mostly cloudy 30 1 1.5 9 S
26/08:30pm 10.3 WNW 7 8 1016.3 - 0.0 - - - - - - -
26/08:00pm 10.1 NW 6 7 1016.5 - 0.0 - - - - - - -
26/07:30pm 10.0 NW 6 7 1016.7 - 0.0 - - - - - - -
26/07:00pm 11.3 WSW 7 9 1016.4 - 0.0 - - - - - - -
26/06:30pm 12.3 SSW 10 11 1016.2 - 0.0 - - - - - - -
26/06:00pm 12.3 SW 11 13 1016.2 - 0.0 - - - - - - -
26/05:30pm 12.4 SW 12 13 1015.9 - 0.0 - - - - - - -
26/05:00pm 12.4 SW 11 13 1015.9 - 0.0 - - - - - - -
26/04:30pm 12.5 SSW 13 14 1015.8 - 0.0 - - - - - - -
26/04:00pm 12.6 SSW 14 15 1015.9 - 0.0 - - - - - - -
26/03:30pm 12.8 SSW 14 16 1016.1 - 0.0 - - - - - - -
26/03:00pm 12.9 SSW 14 15 1016.2 - 0.0 Fine Mostly cloudy 30 1 1.5 9 S
26/02:30pm 13.2 SW 12 15 1016.6 - 0.0 - - - - - - -
26/02:00pm 13.4 SW 13 15 1016.6 - 0.0 - - - - - - -
26/01:30pm 14.0 WSW 12 15 1016.5 - 0.0 - - - - - - -
26/01:00pm 13.1 WSW 12 16 1016.6 - 0.0 - - - - - - -
26/12:30pm 13.6 W 12 16 1017.3 - 0.0 - - - - - - -
26/12:00pm 13.6 W 15 18 1017.8 - 0.0 - - - - - - -
26/11:30am 12.8 W 17 20 1018.4 - 0.0 - - - - - - -
26/11:00am 12.6 W 18 22 1018.9 - 0.0 - - - - - - -
26/10:30am 12.7 W 18 23 1019.2 - 0.0 - - - - - - -
26/10:00am 11.8 W 20 24 1019.2 - 0.0 - - - - - - -
26/09:30am 11.6 W 17 23 1019.3 - 0.0 - - - - - - -
26/09:00am 10.8 W 13 17 1019.3 - 3.2 Fine Partly cloudy 30 2 1.5 9 S
26/08:30am 10.7 W 16 21 1019.0 - 3.2 - - - - - - -
26/08:00am 10.2 W 19 24 1019.1 - 3.2 - - - - - - -
26/07:30am 9.8 W 19 23 1019.1 - 3.2 - - - - - - -
26/07:00am 9.5 W 19 24 1018.9 - 3.2 - - - - - - -
26/06:30am 9.6 W 20 24 1018.7 - 3.2 - - - - - - -
26/06:00am 9.7 W 20 25 1018.4 - 3.2 - - - - - - -
26/05:30am 9.5 W 21 25 1018.4 - 3.2 - - - - - - -
26/05:00am 10.0 W 21 25 1018.5 - 3.2 - - - - - - -
26/04:30am 9.9 W 18 25 1018.5 - 3.2 - - - - - - -
26/04:00am 9.7 W 20 25 1018.2 - 3.2 - - - - - - -
26/03:30am 9.5 W 21 27 1018.2 - 3.2 - - - - - - -
26/03:00am 9.5 W 21 25 1018.2 - 3.2 Fine Cloudy 20 3 2.0 9 S
26/02:30am 9.4 W 21 25 1018.3 - 3.2 - - - - - - -
26/02:00am 9.1 W 21 26 1018.0 - 3.2 - - - - - - -
26/01:30am 9.4 W 19 24 1018.2 - 3.2 - - - - - - -
26/01:00am 9.3 W 22 27 1018.1 - 3.2 - - - - - - -
26/12:30am 9.3 W 23 28 1018.2 - 3.2 - - - - - - -
26/12:00am 9.3 W 23 28 1018.5 - 3.2 Recent precip. - - - - - -
 
Date/Time
EST
Temp
°C
Wind Pressure Rain since
9am
mm
Weather Cloud Vis
km
Sea
Height
m
Swell
Dir  Spd
kts
Gust
kts
hPa Trend Height
m
Period
s
Dir
25/11:30pm 9.2 W 22 27 1018.7 - 3.0 - - - - - - -
25/11:00pm 9.3 W 22 27 1019.1 - 3.0 - - - - - - -
25/10:30pm 9.5 W 22 27 1019.0 - 3.0 - - - - - - -
25/10:00pm 9.3 W 21 26 1019.1 - 3.0 - - - - - - -
25/09:30pm 9.3 W 21 26 1019.2 - 3.0 - - - - - - -
25/09:00pm 9.4 W 22 27 1019.3 - 3.0 Fine Partly cloudy 20 3 2.0 9 S
25/08:30pm 9.2 W 22 26 1019.2 - 3.0 - - - - - - -
25/08:00pm 9.3 W 22 25 1019.2 - 3.0 - - - - - - -
25/07:30pm 9.4 W 21 25 1019.1 - 3.0 - - - - - - -
25/07:00pm 9.3 W 19 25 1019.2 - 3.0 - - - - - - -
25/06:30pm 9.4 W 20 26 1019.1 - 3.0 - - - - - - -
25/06:00pm 9.5 W 20 24 1018.8 - 3.0 - - - - - - -
25/05:30pm 9.9 W 24 30 1018.3 - 3.0 - - - - - - -
25/05:00pm 9.7 WSW 23 30 1018.1 - 3.0 - - - - - - -
25/04:30pm 9.7 WSW 26 32 1017.8 - 2.8 - - - - - - -
25/04:16pm 9.9 WSW 25 35 1017.6 - 2.8 - - - - - - -
25/04:00pm 9.7 WSW 23 31 1017.7 - 2.8 - - - - - - -
25/03:30pm 10.1 WSW 26 33 1017.5 - 2.6 - - - - - - -
25/03:00pm 10.6 WSW 27 35 1017.2 - 2.6 Recent precip. - - - - - -
25/02:46pm 9.7 WSW 27 37 1017.3 - 2.6 - - - - - - -
25/02:30pm 9.9 WSW 23 32 1017.1 - 2.6 - - - - - - -
25/02:26pm 10.1 WSW 21 32 1017.2 - 2.6 - - - - - - -
25/02:00pm 9.5 WSW 25 33 1017.1 - 1.4 - - - - - - -
25/01:30pm 9.7 WSW 30 40 1017.1 - 1.4 - - - - - - -
25/01:00pm 8.9 WSW 26 39 1017.0 - 1.4 - - - - - - -
25/12:31pm 9.4 WSW 27 37 1017.3 - 0.8 - - - - - - -
25/12:30pm 9.4 WSW 28 37 1017.3 - 0.8 - - - - - - -
25/12:18pm 9.5 WSW 21 34 1017.2 - 0.6 - - - - - - -
25/12:06pm 9.1 SW 18 35 1017.4 - 0.2 - - - - - - -
25/12:00pm 9.0 WSW 30 41 1017.2 - 0.0 - - - - - - -
25/11:47am 9.3 WSW 29 39 1017.3 - 0.0 - - - - - - -
25/11:30am 8.9 W 26 34 1017.3 - 0.0 - - - - - - -
25/11:10am 9.4 W 27 37 1017.4 - 0.0 - - - - - - -
25/11:00am 9.5 WSW 28 35 1017.4 - 0.0 - - - - - - -
25/10:30am 9.3 W 28 39 1017.2 - 0.0 - - - - - - -
25/10:28am 9.1 W 28 39 1017.2 - 0.0 - - - - - - -
25/10:00am 9.3 W 25 33 1017.3 - 0.0 - - - - - - -
25/09:30am 8.6 W 27 33 1016.8 - 0.0 - - - - - - -
25/09:00am 8.3 W 25 35 1016.3 - 5.2 Distant precip. Mostly cloudy 20 3 2.0 9 S
25/08:30am 8.0 W 25 32 1016.5 - 4.6 - - - - - - -
25/08:00am 7.7 WSW 22 30 1016.4 - 4.0 - - - - - - -
25/07:30am 7.7 WSW 22 28 1016.2 - 2.8 - - - - - - -
25/07:00am 7.5 W 24 32 1015.8 - 1.2 - - - - - - -
25/06:31am 7.6 W 29 39 1014.9 - 1.0 - - - - - - -
25/06:30am 7.5 W 30 39 1014.9 - 1.0 - - - - - - -
25/06:00am 7.7 W 28 36 1014.4 - 0.8 Rain - - - - - -
25/05:45am 8.0 W 27 37 1014.3 - 0.6 - - - - - - -
25/05:30am 8.1 W 28 35 1013.9 - 0.6 - - - - - - -
25/05:00am 7.7 W 25 32 1013.6 - 0.6 - - - - - - -
25/04:40am 8.1 W 25 35 1013.3 - 0.6 - - - - - - -
25/04:30am 8.1 W 24 33 1013.2 - 0.6 - - - - - - -
25/04:00am 8.2 W 27 35 1012.8 - 0.6 - - - - - - -
25/03:30am 8.1 W 30 36 1012.1 - 0.6 - - - - - - -
25/03:07am 8.0 W 32 43 1011.8 - 0.6 - - - - - - -
25/03:00am 7.9 WSW 32 41 1011.8 - 0.6 Fine Mostly clear 40 3 1.5 9 S
25/02:36am 7.7 W 30 41 1011.7 - 0.6 - - - - - - -
25/02:30am 7.8 W 29 37 1011.7 - 0.6 - - - - - - -
25/02:11am 7.7 W 29 39 1011.4 - 0.6 - - - - - - -
25/02:00am 7.4 W 30 37 1011.2 - 0.6 - - - - - - -
25/01:30am 7.7 W 31 39 1010.8 - 0.6 - - - - - - -
25/01:00am 7.5 W 32 42 1010.3 - 0.6 - - - - - - -
25/12:30am 7.7 W 30 40 1010.0 - 0.6 - - - - - - -
25/12:01am 7.5 W 32 42 1009.9 - 0.6 - - - - - - -
25/12:00am 7.6 W 33 42 1009.8 - 0.6 - - - - - - -
 
Date/Time
EST
Temp
°C
Wind Pressure Rain since
9am
mm
Weather Cloud Vis
km
Sea
Height
m
Swell
Dir  Spd
kts
Gust
kts
hPa Trend Height
m
Period
s
Dir
24/11:30pm 7.7 W 33 43 1009.5 - 0.6 - - - - - - -
24/11:06pm 7.6 W 32 42 1009.3 - 0.6 - - - - - - -
24/11:00pm 7.7 W 34 40 1009.3 - 0.6 - - - - - - -
24/10:35pm 7.9 W 33 43 1009.1 - 0.6 - - - - - - -
24/10:30pm 7.9 W 34 43 1008.9 - 0.6 - - - - - - -
24/10:00pm 7.9 W 33 41 1008.6 - 0.6 - - - - - - -
24/09:30pm 7.5 W 30 37 1008.2 - 0.6 - - - - - - -
24/09:00pm 7.8 W 33 46 1007.8 - 0.6 Fine Mostly clear 40 3 1.5 8 S
24/08:53pm 7.5 W 34 46 1007.5 - 0.6 - - - - - - -
24/08:30pm 7.7 W 32 39 1007.0 - 0.6 - - - - - - -
24/08:00pm 7.3 W 32 42 1006.5 - 0.6 - - - - - - -
24/07:58pm 7.2 W 32 42 1006.5 - 0.6 - - - - - - -
24/07:30pm 7.4 W 31 39 1006.0 - 0.6 - - - - - - -
24/07:07pm 7.7 W 30 40 1006.0 - 0.6 - - - - - - -
24/07:00pm 7.7 W 29 36 1005.9 - 0.6 - - - - - - -
24/06:30pm 8.5 WSW 30 39 1005.2 - 0.4 - - - - - - -
24/06:00pm 9.0 WSW 29 39 1004.5 - 0.0 - - - - - - -
24/05:58pm 9.1 WSW 29 39 1004.5 - 0.0 - - - - - - -
24/05:30pm 9.1 W 29 36 1003.8 - 0.0 - - - - - - -
24/05:16pm 9.1 WSW 29 39 1003.6 - 0.0 - - - - - - -
24/05:00pm 9.8 WSW 28 37 1003.3 - 0.0 - - - - - - -
24/04:30pm 10.3 WSW 29 40 1002.7 - 0.0 - - - - - - -
24/04:12pm 10.1 WSW 23 33 1002.7 - 0.0 - - - - - - -
24/04:00pm 10.1 WSW 24 31 1002.5 - 0.0 - - - - - - -
24/03:30pm 10.5 WSW 23 30 1002.2 - 0.0 - - - - - - -
24/03:00pm 9.7 WSW 22 28 1002.0 - 0.0 Distant precip. Mostly cloudy 40 2 1.5 9 S
24/02:45pm 9.9 WSW 23 33 1001.8 - 0.0 - - - - - - -
24/02:30pm 10.6 WSW 24 32 1001.5 - 0.0 - - - - - - -
24/02:00pm 11.3 WSW 21 25 1001.0 - 0.0 - - - - - - -

Other Formats:

Comma delimited format used in spreadsheet applications
http://www.bom.gov.au/fwo/IDV60701/IDV60701.94933.axf

JavaScript Object Notation format (JSON) in row-major order
http://www.bom.gov.au/fwo/IDV60701/IDV60701.94933.json